sensor_id;sensor_type;location;lat;lon;timestamp;pressure;altitude;pressure_sealevel;temperature;humidity
47670;BME280;33408;52.062;11.722;2022-11-28T00:01:56;101366.69;;;4.94;100.00
47670;BME280;33408;52.062;11.722;2022-11-28T00:04:23;101367.56;;;4.95;100.00
47670;BME280;33408;52.062;11.722;2022-11-28T00:06:50;101361.63;;;5.00;100.00
47670;BME280;33408;52.062;11.722;2022-11-28T00:09:17;101356.34;;;4.91;100.00
47670;BME280;33408;52.062;11.722;2022-11-28T00:11:45;101359.06;;;5.00;100.00
47670;BME280;33408;52.062;11.722;2022-11-28T00:14:13;101348.75;;;4.97;100.00
47670;BME280;33408;52.062;11.722;2022-11-28T00:16:40;101344.50;;;4.98;100.00
47670;BME280;33408;52.062;11.722;2022-11-28T00:19:09;101339.47;;;5.07;100.00
47670;BME280;33408;52.062;11.722;2022-11-28T00:21:36;101343.75;;;5.06;100.00
47670;BME280;33408;52.062;11.722;2022-11-28T00:24:04;101340.31;;;5.04;100.00
47670;BME280;33408;52.062;11.722;2022-11-28T00:26:32;101340.38;;;5.09;100.00
47670;BME280;33408;52.062;11.722;2022-11-28T00:29:00;101336.88;;;5.07;100.00
47670;BME280;33408;52.062;11.722;2022-11-28T00:31:28;101340.38;;;5.09;100.00
47670;BME280;33408;52.062;11.722;2022-11-28T00:33:56;101341.13;;;5.03;100.00
47670;BME280;33408;52.062;11.722;2022-11-28T00:36:24;101339.34;;;4.98;100.00
47670;BME280;33408;52.062;11.722;2022-11-28T00:38:51;101345.41;;;5.01;100.00
47670;BME280;33408;52.062;11.722;2022-11-28T00:41:19;101340.19;;;4.97;100.00
47670;BME280;33408;52.062;11.722;2022-11-28T00:43:47;101347.78;;;4.89;100.00
47670;BME280;33408;52.062;11.722;2022-11-28T00:46:15;101345.16;;;4.86;100.00
47670;BME280;33408;52.062;11.722;2022-11-28T00:48:42;101337.38;;;4.81;100.00
47670;BME280;33408;52.062;11.722;2022-11-28T00:51:10;101340.84;;;4.82;100.00
47670;BME280;33408;52.062;11.722;2022-11-28T00:53:40;101340.78;;;4.79;100.00
47670;BME280;33408;52.062;11.722;2022-11-28T00:56:08;101342.47;;;4.77;100.00
47670;BME280;33408;52.062;11.722;2022-11-28T00:58:35;101334.81;;;4.81;100.00
47670;BME280;33408;52.062;11.722;2022-11-28T01:01:07;101339.88;;;4.75;100.00
47670;BME280;33408;52.062;11.722;2022-11-28T01:03:34;101324.50;;;4.78;100.00
47670;BME280;33408;52.062;11.722;2022-11-28T01:06:00;101327.00;;;4.72;100.00
47670;BME280;33408;52.062;11.722;2022-11-28T01:08:27;101326.97;;;4.70;100.00
47670;BME280;33408;52.062;11.722;2022-11-28T01:10:55;101321.66;;;4.60;100.00
47670;BME280;33408;52.062;11.722;2022-11-28T01:13:22;101317.41;;;4.62;100.00
47670;BME280;33408;52.062;11.722;2022-11-28T01:15:48;101322.41;;;4.54;100.00
47670;BME280;33408;52.062;11.722;2022-11-28T01:18:15;101319.88;;;4.57;100.00
47670;BME280;33408;52.062;11.722;2022-11-28T01:20:41;101309.63;;;4.57;100.00
47670;BME280;33408;52.062;11.722;2022-11-28T01:23:08;101311.41;;;4.61;100.00
47670;BME280;33408;52.062;11.722;2022-11-28T01:25:35;101310.41;;;4.51;100.00
47670;BME280;33408;52.062;11.722;2022-11-28T01:28:03;101305.28;;;4.51;100.00
47670;BME280;33408;52.062;11.722;2022-11-28T01:30:30;101301.88;;;4.54;100.00
47670;BME280;33408;52.062;11.722;2022-11-28T01:32:56;101304.38;;;4.48;100.00
47670;BME280;33408;52.062;11.722;2022-11-28T01:35:23;101300.03;;;4.45;100.00
47670;BME280;33408;52.062;11.722;2022-11-28T01:37:49;101293.22;;;4.47;100.00
47670;BME280;33408;52.062;11.722;2022-11-28T01:40:16;101295.69;;;4.40;100.00
47670;BME280;33408;52.062;11.722;2022-11-28T01:42:43;101298.25;;;4.40;100.00
47670;BME280;33408;52.062;11.722;2022-11-28T01:45:18;101286.13;;;4.32;100.00
47670;BME280;33408;52.062;11.722;2022-11-28T01:47:47;101278.66;;;4.46;100.00
47670;BME280;33408;52.062;11.722;2022-11-28T01:50:16;101278.53;;;4.38;100.00
47670;BME280;33408;52.062;11.722;2022-11-28T01:52:44;101281.97;;;4.39;100.00
47670;BME280;33408;52.062;11.722;2022-11-28T01:55:14;101279.41;;;4.41;100.00
47670;BME280;33408;52.062;11.722;2022-11-28T01:57:42;101277.75;;;4.44;100.00
47670;BME280;33408;52.062;11.722;2022-11-28T02:00:11;101273.34;;;4.35;100.00
47670;BME280;33408;52.062;11.722;2022-11-28T02:02:42;101273.47;;;4.42;100.00
47670;BME280;33408;52.062;11.722;2022-11-28T02:05:10;101265.63;;;4.34;100.00
47670;BME280;33408;52.062;11.722;2022-11-28T02:07:37;101266.63;;;4.44;100.00
47670;BME280;33408;52.062;11.722;2022-11-28T02:10:06;101255.50;;;4.43;100.00
47670;BME280;33408;52.062;11.722;2022-11-28T02:12:41;101243.34;;;4.33;100.00
47670;BME280;33408;52.062;11.722;2022-11-28T02:15:19;101230.50;;;4.31;100.00
47670;BME280;33408;52.062;11.722;2022-11-28T02:18:04;101226.22;;;4.30;100.00
47670;BME280;33408;52.062;11.722;2022-11-28T02:21:00;101225.34;;;4.28;100.00
47670;BME280;33408;52.062;11.722;2022-11-28T02:23:43;101207.38;;;4.28;100.00
47670;BME280;33408;52.062;11.722;2022-11-28T02:26:38;101209.78;;;4.17;100.00
47670;BME280;33408;52.062;11.722;2022-11-28T02:29:29;101208.16;;;4.24;100.00
47670;BME280;33408;52.062;11.722;2022-11-28T02:32:14;101197.09;;;4.27;100.00
47670;BME280;33408;52.062;11.722;2022-11-28T02:34:50;101197.75;;;4.15;100.00
47670;BME280;33408;52.062;11.722;2022-11-28T02:37:25;101201.06;;;4.08;100.00
47670;BME280;33408;52.062;11.722;2022-11-28T02:40:00;101186.59;;;4.11;100.00
47670;BME280;33408;52.062;11.722;2022-11-28T02:42:39;101195.19;;;4.15;100.00
47670;BME280;33408;52.062;11.722;2022-11-28T02:45:11;101185.50;;;3.97;100.00
47670;BME280;33408;52.062;11.722;2022-11-28T02:47:47;101183.03;;;4.03;100.00
47670;BME280;33408;52.062;11.722;2022-11-28T02:50:19;101185.50;;;3.97;100.00
47670;BME280;33408;52.062;11.722;2022-11-28T02:52:49;101185.72;;;4.09;100.00
47670;BME280;33408;52.062;11.722;2022-11-28T02:55:17;101180.34;;;3.95;100.00
47670;BME280;33408;52.062;11.722;2022-11-28T02:57:47;101174.56;;;4.09;100.00
47670;BME280;33408;52.062;11.722;2022-11-28T03:00:26;101176.94;;;3.95;100.00
47670;BME280;33408;52.062;11.722;2022-11-28T03:03:03;101176.25;;;4.07;100.00
47670;BME280;33408;52.062;11.722;2022-11-28T03:05:39;101177.06;;;4.03;100.00
47670;BME280;33408;52.062;11.722;2022-11-28T03:08:20;101165.00;;;3.97;100.00
47670;BME280;33408;52.062;11.722;2022-11-28T03:10:57;101165.78;;;3.94;100.00
47670;BME280;33408;52.062;11.722;2022-11-28T03:13:33;101166.66;;;3.95;100.00
47670;BME280;33408;52.062;11.722;2022-11-28T03:16:12;101164.75;;;3.83;100.00
47670;BME280;33408;52.062;11.722;2022-11-28T03:18:45;101165.69;;;3.87;100.00
47670;BME280;33408;52.062;11.722;2022-11-28T03:21:24;101163.94;;;3.84;100.00
47670;BME280;33408;52.062;11.722;2022-11-28T03:23:58;101163.09;;;3.85;100.00
47670;BME280;33408;52.062;11.722;2022-11-28T03:26:32;101163.09;;;3.85;100.00
47670;BME280;33408;52.062;11.722;2022-11-28T03:29:06;101153.66;;;3.84;100.00
47670;BME280;33408;52.062;11.722;2022-11-28T03:31:37;101136.66;;;3.91;100.00
47670;BME280;33408;52.062;11.722;2022-11-28T03:34:11;101145.19;;;3.87;100.00
47670;BME280;33408;52.062;11.722;2022-11-28T03:36:43;101146.94;;;3.91;100.00
47670;BME280;33408;52.062;11.722;2022-11-28T03:39:13;101133.22;;;3.89;100.00
47670;BME280;33408;52.062;11.722;2022-11-28T03:41:43;101142.56;;;3.83;100.00
47670;BME280;33408;52.062;11.722;2022-11-28T03:44:17;101140.78;;;3.81;100.00
47670;BME280;33408;52.062;11.722;2022-11-28T03:46:46;101144.22;;;3.81;100.00
47670;BME280;33408;52.062;11.722;2022-11-28T03:49:21;101144.13;;;3.75;100.00
47670;BME280;33408;52.062;11.722;2022-11-28T03:51:52;101142.47;;;3.77;100.00
47670;BME280;33408;52.062;11.722;2022-11-28T03:54:24;101148.56;;;3.86;100.00
47670;BME280;33408;52.062;11.722;2022-11-28T03:56:58;101162.34;;;3.92;100.00
47670;BME280;33408;52.062;11.722;2022-11-28T03:59:27;101177.72;;;3.91;100.00
47670;BME280;33408;52.062;11.722;2022-11-28T04:02:00;101162.31;;;3.91;100.00
47670;BME280;33408;52.062;11.722;2022-11-28T04:04:30;101166.56;;;3.89;100.00
47670;BME280;33408;52.062;11.722;2022-11-28T04:07:05;101172.41;;;3.81;100.00
47670;BME280;33408;52.062;11.722;2022-11-28T04:09:37;101181.97;;;3.90;100.00
47670;BME280;33408;52.062;11.722;2022-11-28T04:12:09;101190.63;;;3.95;100.00
47670;BME280;33408;52.062;11.722;2022-11-28T04:14:40;101192.44;;;4.01;100.00
47670;BME280;33408;52.062;11.722;2022-11-28T04:17:09;101186.56;;;4.10;100.00
47670;BME280;33408;52.062;11.722;2022-11-28T04:19:41;101194.84;;;3.92;100.00
47670;BME280;33408;52.062;11.722;2022-11-28T04:22:13;101190.66;;;3.98;100.00
47670;BME280;33408;52.062;11.722;2022-11-28T04:24:46;101187.38;;;4.09;100.00
47670;BME280;33408;52.062;11.722;2022-11-28T04:27:15;101185.84;;;4.20;100.00
47670;BME280;33408;52.062;11.722;2022-11-28T04:29:46;101176.22;;;4.05;100.00
47670;BME280;33408;52.062;11.722;2022-11-28T04:32:16;101174.59;;;4.12;100.00
47670;BME280;33408;52.062;11.722;2022-11-28T04:34:49;101180.63;;;4.12;100.00
47670;BME280;33408;52.062;11.722;2022-11-28T04:37:18;101177.19;;;4.12;100.00
47670;BME280;33408;52.062;11.722;2022-11-28T04:39:46;101177.97;;;4.06;100.00
47670;BME280;33408;52.062;11.722;2022-11-28T04:42:16;101166.75;;;3.99;100.00
47670;BME280;33408;52.062;11.722;2022-11-28T04:44:47;101165.09;;;4.03;100.00
47670;BME280;33408;52.062;11.722;2022-11-28T04:47:17;101165.06;;;4.01;100.00
47670;BME280;33408;52.062;11.722;2022-11-28T04:49:43;101151.41;;;4.04;100.00
47670;BME280;33408;52.062;11.722;2022-11-28T04:52:14;101146.28;;;4.06;100.00
47670;BME280;33408;52.062;11.722;2022-11-28T04:54:51;101142.81;;;4.00;100.00
47670;BME280;33408;52.062;11.722;2022-11-28T04:57:25;101133.25;;;3.90;100.00
47670;BME280;33408;52.062;11.722;2022-11-28T04:59:54;101127.41;;;4.00;100.00
47670;BME280;33408;52.062;11.722;2022-11-28T05:02:23;101133.31;;;3.95;100.00
47670;BME280;33408;52.062;11.722;2022-11-28T05:04:50;101138.44;;;3.93;100.00
47670;BME280;33408;52.062;11.722;2022-11-28T05:07:21;101141.03;;;3.95;100.00
47670;BME280;33408;52.062;11.722;2022-11-28T05:09:48;101139.22;;;3.91;100.00
47670;BME280;33408;52.062;11.722;2022-11-28T05:12:15;101135.09;;;3.99;100.00
47670;BME280;33408;52.062;11.722;2022-11-28T05:14:41;101148.78;;;3.99;100.00
47670;BME280;33408;52.062;11.722;2022-11-28T05:17:10;101138.31;;;3.86;100.00
47670;BME280;33408;52.062;11.722;2022-11-28T05:19:37;101140.91;;;3.87;100.00
47670;BME280;33408;52.062;11.722;2022-11-28T05:22:04;101140.28;;;4.04;100.00
47670;BME280;33408;52.062;11.722;2022-11-28T05:24:32;101146.94;;;3.92;100.00
47670;BME280;33408;52.062;11.722;2022-11-28T05:26:58;101133.22;;;3.89;100.00
47670;BME280;33408;52.062;11.722;2022-11-28T05:29:25;101135.78;;;3.89;100.00
47670;BME280;33408;52.062;11.722;2022-11-28T05:31:52;101130.47;;;3.76;100.00
47670;BME280;33408;52.062;11.722;2022-11-28T05:34:18;101128.78;;;3.77;100.00
47670;BME280;33408;52.062;11.722;2022-11-28T05:36:45;101125.19;;;3.65;100.00
47670;BME280;33408;52.062;11.722;2022-11-28T05:39:11;101126.81;;;3.62;100.00
47670;BME280;33408;52.062;11.722;2022-11-28T05:41:39;101127.63;;;3.58;100.00
47670;BME280;33408;52.062;11.722;2022-11-28T05:44:06;101130.25;;;3.62;100.00
47670;BME280;33408;52.062;11.722;2022-11-28T05:46:32;101125.84;;;3.55;100.00
47670;BME280;33408;52.062;11.722;2022-11-28T05:48:59;101124.13;;;3.53;100.00
47670;BME280;33408;52.062;11.722;2022-11-28T05:51:26;101130.25;;;3.62;100.00
47670;BME280;33408;52.062;11.722;2022-11-28T05:53:52;101111.53;;;3.68;100.00
47670;BME280;33408;52.062;11.722;2022-11-28T05:56:20;101117.31;;;3.55;100.00
47670;BME280;33408;52.062;11.722;2022-11-28T05:58:49;101109.81;;;3.69;100.00
47670;BME280;33408;52.062;11.722;2022-11-28T06:01:17;101111.31;;;3.53;100.00
47670;BME280;33408;52.062;11.722;2022-11-28T06:03:44;101113.88;;;3.53;100.00
47670;BME280;33408;52.062;11.722;2022-11-28T06:06:12;101109.66;;;3.56;100.00
47670;BME280;33408;52.062;11.722;2022-11-28T06:08:39;101105.28;;;3.52;100.00
47670;BME280;33408;52.062;11.722;2022-11-28T06:11:06;101100.88;;;3.42;100.00
47670;BME280;33408;52.062;11.722;2022-11-28T06:13:33;101101.06;;;3.53;100.00
47670;BME280;33408;52.062;11.722;2022-11-28T06:16:01;101096.75;;;3.52;100.00
47670;BME280;33408;52.062;11.722;2022-11-28T06:18:28;101102.63;;;3.46;100.00
47670;BME280;33408;52.062;11.722;2022-11-28T06:20:54;101093.34;;;3.51;100.00
47670;BME280;33408;52.062;11.722;2022-11-28T06:23:21;101095.13;;;3.58;100.00
47670;BME280;33408;52.062;11.722;2022-11-28T06:25:48;101090.03;;;3.58;100.00
47670;BME280;33408;52.062;11.722;2022-11-28T06:28:15;101085.69;;;3.54;100.00
47670;BME280;33408;52.062;11.722;2022-11-28T06:30:42;101083.84;;;3.47;100.00
47670;BME280;33408;52.062;11.722;2022-11-28T06:33:10;101078.91;;;3.58;100.00
47670;BME280;33408;52.062;11.722;2022-11-28T06:35:37;101074.53;;;3.52;100.00
47670;BME280;33408;52.062;11.722;2022-11-28T06:38:03;101079.59;;;3.49;100.00
47670;BME280;33408;52.062;11.722;2022-11-28T06:40:30;101077.31;;;3.64;100.00
47670;BME280;33408;52.062;11.722;2022-11-28T06:42:56;101079.00;;;3.64;100.00
47670;BME280;33408;52.062;11.722;2022-11-28T06:45:23;101073.84;;;3.61;100.00
47670;BME280;33408;52.062;11.722;2022-11-28T06:47:50;101073.88;;;3.64;100.00
47670;BME280;33408;52.062;11.722;2022-11-28T06:50:18;101075.63;;;3.67;100.00
47670;BME280;33408;52.062;11.722;2022-11-28T06:52:44;101073.84;;;3.61;100.00
47670;BME280;33408;52.062;11.722;2022-11-28T06:55:11;101078.19;;;3.67;100.00
47670;BME280;33408;52.062;11.722;2022-11-28T06:57:38;101072.28;;;3.72;100.00
47670;BME280;33408;52.062;11.722;2022-11-28T07:00:05;101078.28;;;3.73;100.00
47670;BME280;33408;52.062;11.722;2022-11-28T07:02:32;101080.78;;;3.70;100.00
47670;BME280;33408;52.062;11.722;2022-11-28T07:04:59;101073.03;;;3.65;100.00
47670;BME280;33408;52.062;11.722;2022-11-28T07:07:27;101067.13;;;3.69;100.00
47670;BME280;33408;52.062;11.722;2022-11-28T07:09:53;101071.41;;;3.72;100.00
47670;BME280;33408;52.062;11.722;2022-11-28T07:12:20;101068.03;;;3.74;100.00
47670;BME280;33408;52.062;11.722;2022-11-28T07:14:46;101078.34;;;3.77;100.00
47670;BME280;33408;52.062;11.722;2022-11-28T07:17:13;101076.72;;;3.82;100.00
47670;BME280;33408;52.062;11.722;2022-11-28T07:19:40;101082.66;;;3.78;100.00
47670;BME280;33408;52.062;11.722;2022-11-28T07:22:08;101080.75;;;3.67;100.00
47670;BME280;33408;52.062;11.722;2022-11-28T07:24:37;101074.94;;;3.80;100.00
47670;BME280;33408;52.062;11.722;2022-11-28T07:27:03;101066.50;;;3.86;100.00
47670;BME280;33408;52.062;11.722;2022-11-28T07:29:30;101058.63;;;3.73;100.00
47670;BME280;33408;52.062;11.722;2022-11-28T07:32:00;101052.72;;;3.77;100.00
47670;BME280;33408;52.062;11.722;2022-11-28T07:34:27;101048.44;;;3.78;100.00
47670;BME280;33408;52.062;11.722;2022-11-28T07:36:54;101037.25;;;3.73;100.00
47670;BME280;33408;52.062;11.722;2022-11-28T07:39:20;101044.88;;;3.68;100.00
47670;BME280;33408;52.062;11.722;2022-11-28T07:41:48;101037.25;;;3.73;100.00
47670;BME280;33408;52.062;11.722;2022-11-28T07:44:15;101033.75;;;3.68;100.00
47670;BME280;33408;52.062;11.722;2022-11-28T07:46:43;101031.28;;;3.74;100.00
47670;BME280;33408;52.062;11.722;2022-11-28T07:49:10;101032.84;;;3.62;100.00
47670;BME280;33408;52.062;11.722;2022-11-28T07:51:37;101026.84;;;3.62;100.00
47670;BME280;33408;52.062;11.722;2022-11-28T07:54:04;101020.84;;;3.61;100.00
47670;BME280;33408;52.062;11.722;2022-11-28T07:56:33;101028.81;;;3.78;100.00
47670;BME280;33408;52.062;11.722;2022-11-28T07:59:02;101026.25;;;3.81;100.00
47670;BME280;33408;52.062;11.722;2022-11-28T08:01:31;101028.03;;;3.86;100.00
47670;BME280;33408;52.062;11.722;2022-11-28T08:04:00;101036.56;;;3.84;100.00
47670;BME280;33408;52.062;11.722;2022-11-28T08:06:29;101032.41;;;3.94;100.00
47670;BME280;33408;52.062;11.722;2022-11-28T08:08:56;101023.06;;;3.96;100.00
47670;BME280;33408;52.062;11.722;2022-11-28T08:11:25;101030.72;;;3.95;100.00
47670;BME280;33408;52.062;11.722;2022-11-28T08:13:54;101021.59;;;4.15;100.00
47670;BME280;33408;52.062;11.722;2022-11-28T08:16:23;101018.94;;;4.08;100.00
47670;BME280;33408;52.062;11.722;2022-11-28T08:18:51;101019.94;;;4.19;100.00
47670;BME280;33408;52.062;11.722;2022-11-28T08:21:20;101028.34;;;4.10;100.00
47670;BME280;33408;52.062;11.722;2022-11-28T08:23:48;101019.84;;;4.13;100.00
47670;BME280;33408;52.062;11.722;2022-11-28T08:26:17;101014.59;;;4.05;100.00
47670;BME280;33408;52.062;11.722;2022-11-28T08:28:44;101022.34;;;4.08;100.00
47670;BME280;33408;52.062;11.722;2022-11-28T08:31:12;101020.50;;;3.98;100.00
47670;BME280;33408;52.062;11.722;2022-11-28T08:33:40;101022.41;;;4.13;100.00
47670;BME280;33408;52.062;11.722;2022-11-28T08:36:08;101022.28;;;4.04;100.00
47670;BME280;33408;52.062;11.722;2022-11-28T08:38:36;101019.69;;;4.00;100.00
47670;BME280;33408;52.062;11.722;2022-11-28T08:41:04;101017.94;;;3.98;100.00
47670;BME280;33408;52.062;11.722;2022-11-28T08:43:32;101017.09;;;4.00;100.00
47670;BME280;33408;52.062;11.722;2022-11-28T08:45:59;101023.91;;;3.97;100.00
47670;BME280;33408;52.062;11.722;2022-11-28T08:48:26;101029.97;;;4.04;100.00
47670;BME280;33408;52.062;11.722;2022-11-28T08:50:55;101041.19;;;4.12;100.00
47670;BME280;33408;52.062;11.722;2022-11-28T08:53:21;101041.06;;;4.01;100.00
47670;BME280;33408;52.062;11.722;2022-11-28T08:55:48;101035.94;;;3.99;100.00
47670;BME280;33408;52.062;11.722;2022-11-28T08:58:15;101039.38;;;4.03;100.00
47670;BME280;33408;52.062;11.722;2022-11-28T09:00:42;101040.19;;;4.00;100.00
47670;BME280;33408;52.062;11.722;2022-11-28T09:03:12;101048.81;;;4.06;100.00
47670;BME280;33408;52.062;11.722;2022-11-28T09:05:39;101054.88;;;4.11;100.00
47670;BME280;33408;52.062;11.722;2022-11-28T09:08:08;101061.81;;;4.18;100.00
47670;BME280;33408;52.062;11.722;2022-11-28T09:10:38;101075.53;;;4.22;100.00
47670;BME280;33408;52.062;11.722;2022-11-28T09:13:06;101090.22;;;4.30;100.00
47670;BME280;33408;52.062;11.722;2022-11-28T09:15:33;101091.09;;;4.34;100.00
47670;BME280;33408;52.062;11.722;2022-11-28T09:18:00;101091.88;;;4.30;100.00
47670;BME280;33408;52.062;11.722;2022-11-28T09:20:26;101096.16;;;4.28;100.00
47670;BME280;33408;52.062;11.722;2022-11-28T09:22:53;101098.66;;;4.23;100.00
47670;BME280;33408;52.062;11.722;2022-11-28T09:25:21;101091.03;;;4.29;100.00
47670;BME280;33408;52.062;11.722;2022-11-28T09:27:47;101097.81;;;4.24;100.00
47670;BME280;33408;52.062;11.722;2022-11-28T09:30:14;101086.94;;;4.44;100.00
47670;BME280;33408;52.062;11.722;2022-11-28T09:32:41;101092.03;;;4.41;100.00
47670;BME280;33408;52.062;11.722;2022-11-28T09:35:08;101080.97;;;4.45;100.00
47670;BME280;33408;52.062;11.722;2022-11-28T09:37:34;101084.47;;;4.51;100.00
47670;BME280;33408;52.062;11.722;2022-11-28T09:40:01;101085.53;;;4.69;100.00
47670;BME280;33408;52.062;11.722;2022-11-28T09:42:32;101082.63;;;4.41;100.00
47670;BME280;33408;52.062;11.722;2022-11-28T09:45:00;101079.22;;;4.41;100.00
47670;BME280;33408;52.062;11.722;2022-11-28T09:47:30;101072.56;;;4.56;100.00
47670;BME280;33408;52.062;11.722;2022-11-28T09:49:59;101057.84;;;4.42;100.00
47670;BME280;33408;52.062;11.722;2022-11-28T09:52:33;101043.16;;;4.33;100.00
47670;BME280;33408;52.062;11.722;2022-11-28T09:55:13;101041.38;;;4.24;100.00
47670;BME280;33408;52.062;11.722;2022-11-28T09:57:45;101047.50;;;4.35;100.00
47670;BME280;33408;52.062;11.722;2022-11-28T10:00:15;101044.06;;;4.35;100.00
47670;BME280;33408;52.062;11.722;2022-11-28T10:02:51;101034.59;;;4.31;100.00
47670;BME280;33408;52.062;11.722;2022-11-28T10:05:27;101037.25;;;4.37;100.00
47670;BME280;33408;52.062;11.722;2022-11-28T10:08:09;101039.72;;;4.31;100.00
47670;BME280;33408;52.062;11.722;2022-11-28T10:10:43;101037.25;;;4.37;100.00
47670;BME280;33408;52.062;11.722;2022-11-28T10:13:19;101026.97;;;4.35;100.00
47670;BME280;33408;52.062;11.722;2022-11-28T10:15:47;101022.75;;;4.42;100.00
47670;BME280;33408;52.062;11.722;2022-11-28T10:18:27;101021.19;;;4.55;100.00
47670;BME280;33408;52.062;11.722;2022-11-28T10:20:59;101017.81;;;4.57;100.00
47670;BME280;33408;52.062;11.722;2022-11-28T10:23:29;101013.50;;;4.56;100.00
47670;BME280;33408;52.062;11.722;2022-11-28T10:26:00;101029.75;;;4.55;100.00
47670;BME280;33408;52.062;11.722;2022-11-28T10:28:33;101048.75;;;4.73;100.00
47670;BME280;33408;52.062;11.722;2022-11-28T10:31:05;101050.59;;;4.83;100.00
47670;BME280;33408;52.062;11.722;2022-11-28T10:33:38;101056.88;;;5.13;100.00
47670;BME280;33408;52.062;11.722;2022-11-28T10:36:12;101057.78;;;5.20;100.00
47670;BME280;33408;52.062;11.722;2022-11-28T10:38:41;101062.78;;;5.03;100.00
47670;BME280;33408;52.062;11.722;2022-11-28T10:41:13;101065.66;;;5.38;100.00
47670;BME280;33408;52.062;11.722;2022-11-28T10:43:47;101056.25;;;5.42;100.00
47670;BME280;33408;52.062;11.722;2022-11-28T10:46:34;101050.25;;;5.38;100.00
47670;BME280;33408;52.062;11.722;2022-11-28T10:49:17;101056.38;;;5.54;100.00
47670;BME280;33408;52.062;11.722;2022-11-28T10:51:54;101049.59;;;5.65;100.00
47670;BME280;33408;52.062;11.722;2022-11-28T10:54:47;101051.19;;;5.50;100.00
47670;BME280;33408;52.062;11.722;2022-11-28T10:57:21;101048.59;;;5.46;100.00
47670;BME280;33408;52.062;11.722;2022-11-28T11:00:00;101046.84;;;5.45;100.00
47670;BME280;33408;52.062;11.722;2022-11-28T11:02:34;101038.25;;;5.40;100.00
47670;BME280;33408;52.062;11.722;2022-11-28T11:05:03;101035.78;;;5.53;100.00
47670;BME280;33408;52.062;11.722;2022-11-28T11:07:31;101028.81;;;5.42;100.00
47670;BME280;33408;52.062;11.722;2022-11-28T11:10:04;101019.31;;;5.30;100.00
47670;BME280;33408;52.062;11.722;2022-11-28T11:12:37;101023.59;;;5.27;100.00
47670;BME280;33408;52.062;11.722;2022-11-28T11:15:17;101016.72;;;5.26;100.00
47670;BME280;33408;52.062;11.722;2022-11-28T11:17:44;101015.94;;;5.35;100.00
47670;BME280;33408;52.062;11.722;2022-11-28T11:20:33;101011.72;;;5.44;100.00
47670;BME280;33408;52.062;11.722;2022-11-28T11:23:10;101009.09;;;5.37;100.00
47670;BME280;33408;52.062;11.722;2022-11-28T11:25:45;101000.44;;;5.24;100.00
47670;BME280;33408;52.062;11.722;2022-11-28T11:28:25;101003.13;;;5.42;100.00
47670;BME280;33408;52.062;11.722;2022-11-28T11:30:59;101003.97;;;5.38;100.00
47670;BME280;33408;52.062;11.722;2022-11-28T11:33:31;101001.50;;;5.55;100.00
47670;BME280;33408;52.062;11.722;2022-11-28T11:35:58;100999.72;;;5.46;100.00
47670;BME280;33408;52.062;11.722;2022-11-28T11:38:28;101005.69;;;5.44;100.00
47670;BME280;33408;52.062;11.722;2022-11-28T11:40:55;101004.94;;;5.56;100.00
47670;BME280;33408;52.062;11.722;2022-11-28T11:43:25;101009.22;;;5.55;100.00
47670;BME280;33408;52.062;11.722;2022-11-28T11:46:09;101005.81;;;5.59;100.00
47670;BME280;33408;52.062;11.722;2022-11-28T11:48:38;101014.44;;;5.69;100.00
47670;BME280;33408;52.062;11.722;2022-11-28T11:51:06;101002.50;;;5.80;100.00
47670;BME280;33408;52.062;11.722;2022-11-28T11:53:33;101004.13;;;5.63;100.00
47670;BME280;33408;52.062;11.722;2022-11-28T11:56:02;101005.81;;;5.61;100.00
47670;BME280;33408;52.062;11.722;2022-11-28T11:58:34;101000.66;;;5.58;100.00
47670;BME280;33408;52.062;11.722;2022-11-28T12:01:05;101007.56;;;5.60;100.00
47670;BME280;33408;52.062;11.722;2022-11-28T12:03:38;101000.72;;;5.64;100.00
47670;BME280;33408;52.062;11.722;2022-11-28T12:06:10;100988.72;;;5.69;100.00
47670;BME280;33408;52.062;11.722;2022-11-28T12:08:42;100983.56;;;5.68;100.00
47670;BME280;33408;52.062;11.722;2022-11-28T12:11:14;100990.47;;;5.76;100.00
47670;BME280;33408;52.062;11.722;2022-11-28T12:13:43;100987.00;;;5.68;100.00
47670;BME280;33408;52.062;11.722;2022-11-28T12:19:11;100985.28;;;5.64;100.00
47670;BME280;33408;52.062;11.722;2022-11-28T12:21:51;100986.13;;;5.64;100.00
47670;BME280;33408;52.062;11.722;2022-11-28T12:24:26;100997.25;;;5.59;100.00
47670;BME280;33408;52.062;11.722;2022-11-28T12:27:02;100985.28;;;5.67;100.00
47670;BME280;33408;52.062;11.722;2022-11-28T12:29:41;100976.72;;;5.71;100.00
47670;BME280;33408;52.062;11.722;2022-11-28T12:32:36;100975.03;;;5.70;100.00
47670;BME280;33408;52.062;11.722;2022-11-28T12:35:16;100970.75;;;5.72;100.00
47670;BME280;33408;52.062;11.722;2022-11-28T12:37:56;100967.28;;;5.65;100.00
47670;BME280;33408;52.062;11.722;2022-11-28T12:40:30;100963.06;;;5.77;100.00
47670;BME280;33408;52.062;11.722;2022-11-28T12:43:11;100966.44;;;5.73;100.00
47670;BME280;33408;52.062;11.722;2022-11-28T12:45:47;100973.31;;;5.74;100.00
47670;BME280;33408;52.062;11.722;2022-11-28T12:48:31;100971.63;;;5.80;100.00
47670;BME280;33408;52.062;11.722;2022-11-28T12:51:11;100969.91;;;5.78;100.00
47670;BME280;33408;52.062;11.722;2022-11-28T12:53:49;100966.50;;;5.80;100.00
47670;BME280;33408;52.062;11.722;2022-11-28T12:56:39;100967.34;;;5.75;100.00
47670;BME280;33408;52.062;11.722;2022-11-28T12:59:19;100963.09;;;5.84;100.00
47670;BME280;33408;52.062;11.722;2022-11-28T13:01:59;100952.91;;;6.03;100.00